Time;durP1;ratioP1;P1;durP2;ratioP2;P2;SDS_P1;SDS_P2;PMS_P1;PMS_P2;Temp;Humidity;BMP_temperature;BMP_pressure;BME280_temperature;BME280_humidity;BME280_pressure;Samples;Min_cycle;Max_cycle;Signal;HPM_P1;HPM_P2
2022/03/24 00:02:24;;;;;;;;;;;;;;;18.56;58.11;101776.81;5034242;28;1609;-58
2022/03/24 00:04:51;;;;;;;;;;;;;;;18.56;57.98;101798.25;5025711;28;1538;-62
2022/03/24 00:07:17;;;;;;;;;;;;;;;18.52;57.63;101786.88;5031935;28;1589;-57
2022/03/24 00:09:44;;;;;;;;;;;;;;;18.52;58.16;101786.88;5026710;28;1605;-61
2022/03/24 00:12:12;;;;;;;;;;;;;;;18.47;58.26;101775.66;5036819;28;1007;-62
2022/03/24 00:14:39;;;;;;;;;;;;;;;18.56;58.14;101784.84;5025263;28;1779;-61
2022/03/24 00:17:06;;;;;;;;;;;;;;;18.49;57.91;101771.03;5025663;28;1919;-61
2022/03/24 00:19:32;;;;;;;;;;;;;;;18.45;58.00;101767.72;5027555;28;1661;-61
2022/03/24 00:21:59;;;;;;;;;;;;;;;18.43;57.96;101760.75;5034006;28;1850;-61
2022/03/24 00:24:56;;;;;;;;;;;;;;;18.42;58.03;101748.31;5037297;28;1044;-62
2022/03/24 00:27:25;;;;;;;;;;;;;;;18.41;58.19;101752.81;5036336;28;1424;-61
2022/03/24 00:29:51;;;;;;;;;;;;;;;18.42;57.92;101765.25;5025020;28;1630;-57
2022/03/24 00:32:18;;;;;;;;;;;;;;;18.37;57.28;101745.97;5024881;28;1741;-61
2022/03/24 00:34:45;;;;;;;;;;;;;;;18.37;57.85;101750.47;5036341;28;1639;-61
2022/03/24 00:37:11;;;;;;;;;;;;;;;18.37;57.63;101751.31;5036176;28;1971;-57
2022/03/24 00:39:38;;;;;;;;;;;;;;;18.38;57.75;101747.69;5036363;28;1609;-57
2022/03/24 00:42:07;;;;;;;;;;;;;;;18.36;57.77;101746.06;5036281;28;1318;-61
2022/03/24 00:44:35;;;;;;;;;;;;;;;18.32;58.00;101740.06;5036324;28;1587;-57
2022/03/24 00:47:02;;;;;;;;;;;;;;;18.31;57.64;101741.06;5035029;28;1656;-57
2022/03/24 00:49:29;;;;;;;;;;;;;;;18.28;57.39;101736.78;5026866;28;1574;-58
2022/03/24 00:51:56;;;;;;;;;;;;;;;18.29;57.53;101742.97;5036936;28;986;-62
2022/03/24 00:54:22;;;;;;;;;;;;;;;18.28;57.26;101738.56;5033770;28;1775;-61
2022/03/24 00:56:49;;;;;;;;;;;;;;;18.27;57.40;101735.03;5024849;28;1906;-57
2022/03/24 00:59:16;;;;;;;;;;;;;;;18.26;57.23;101736.03;5026777;28;1656;-57
2022/03/24 01:01:44;;;;;;;;;;;;;;;18.24;57.34;101731.72;5025643;28;1605;-58
2022/03/24 01:04:10;;;;;;;;;;;;;;;18.22;57.16;101729.16;5036027;28;1071;-62
2022/03/24 01:06:37;;;;;;;;;;;;;;;18.20;57.47;101727.53;5035681;28;1545;-61
2022/03/24 01:09:04;;;;;;;;;;;;;;;18.19;56.61;101728.53;5034198;28;1685;-57
2022/03/24 01:11:31;;;;;;;;;;;;;;;18.21;57.41;101730.13;5025415;28;1582;-57
2022/03/24 01:13:57;;;;;;;;;;;;;;;18.17;57.04;101717.91;5025267;28;1060;-57
2022/03/24 01:16:24;;;;;;;;;;;;;;;18.14;57.05;101712.75;5024462;28;1696;-62
2022/03/24 01:18:52;;;;;;;;;;;;;;;18.13;56.94;101713.75;5035627;28;1952;-61
2022/03/24 01:21:19;;;;;;;;;;;;;;;18.12;56.88;101705.81;5035405;28;1615;-57
2022/03/24 01:23:45;;;;;;;;;;;;;;;18.09;56.63;101712.25;5035777;28;1426;-57
2022/03/24 01:26:12;;;;;;;;;;;;;;;18.08;56.85;101698.00;5035989;28;1020;-62
2022/03/24 01:28:39;;;;;;;;;;;;;;;18.06;56.67;101699.94;5024070;28;1772;-62
2022/03/24 01:31:05;;;;;;;;;;;;;;;18.06;56.85;101699.06;5032655;28;1689;-61
2022/03/24 01:33:32;;;;;;;;;;;;;;;18.03;56.77;101691.25;5031924;28;1039;-57
2022/03/24 01:35:59;;;;;;;;;;;;;;;18.05;56.46;101697.34;5033013;28;1999;-57
2022/03/24 01:38:27;;;;;;;;;;;;;;;18.04;56.58;101692.94;5027140;28;1979;-57
2022/03/24 01:40:53;;;;;;;;;;;;;;;18.02;56.82;101676.16;5026090;28;1777;-61
2022/03/24 01:43:20;;;;;;;;;;;;;;;18.01;56.21;101677.97;5021543;28;1623;-57
2022/03/24 01:45:47;;;;;;;;;;;;;;;18.03;56.20;101693.94;5034222;28;1437;-57
2022/03/24 01:48:15;;;;;;;;;;;;;;;18.00;56.38;101684.28;5035207;28;1413;-61
2022/03/24 01:50:41;;;;;;;;;;;;;;;17.98;56.42;101677.31;5030169;28;1629;-57
2022/03/24 01:53:09;;;;;;;;;;;;;;;17.98;56.58;101680.00;5029386;28;1978;-61
2022/03/24 01:55:38;;;;;;;;;;;;;;;17.98;56.70;101674.66;5026487;28;1631;-57
2022/03/24 01:58:05;;;;;;;;;;;;;;;17.95;56.63;101669.53;5025609;28;1906;-61
2022/03/24 02:00:32;;;;;;;;;;;;;;;17.93;56.69;101666.09;5025407;28;1621;-61
2022/03/24 02:03:04;;;;;;;;;;;;;;;17.94;56.64;101673.16;5025622;28;1625;-62
2022/03/24 02:05:31;;;;;;;;;;;;;;;17.89;56.59;101652.91;5025694;28;1558;-57
2022/03/24 02:07:58;;;;;;;;;;;;;;;17.89;56.58;101663.63;5027657;28;1016;-57
2022/03/24 02:10:27;;;;;;;;;;;;;;;17.89;56.46;101660.09;5026307;28;1736;-61
2022/03/24 02:12:54;;;;;;;;;;;;;;;17.88;56.44;101671.75;5031828;28;1279;-62
2022/03/24 02:15:21;;;;;;;;;;;;;;;17.86;56.57;101653.13;5029098;28;1662;-61
2022/03/24 02:17:48;;;;;;;;;;;;;;;17.83;56.46;101656.03;5028556;28;1971;-61
2022/03/24 02:20:15;;;;;;;;;;;;;;;17.84;56.34;101663.06;5031971;28;1652;-61
2022/03/24 02:22:44;;;;;;;;;;;;;;;17.84;56.45;101657.72;5026612;28;1019;-61
2022/03/24 02:25:11;;;;;;;;;;;;;;;17.85;56.26;101662.13;5028487;28;1721;-57
2022/03/24 02:27:37;;;;;;;;;;;;;;;17.84;56.33;101652.38;5025126;28;1533;-61
2022/03/24 02:30:04;;;;;;;;;;;;;;;17.80;56.37;101656.19;5027864;28;1590;-57
2022/03/24 02:32:31;;;;;;;;;;;;;;;17.80;56.26;101653.50;5023073;28;1463;-57
2022/03/24 02:34:57;;;;;;;;;;;;;;;17.79;56.08;101650.97;5026134;28;1040;-61
2022/03/24 02:37:25;;;;;;;;;;;;;;;17.76;55.52;101648.50;5022970;28;1907;-57
2022/03/24 02:39:54;;;;;;;;;;;;;;;17.81;55.80;101663.28;5029606;28;1520;-57
2022/03/24 02:42:22;;;;;;;;;;;;;;;17.77;55.22;101640.38;5027044;28;1761;-57
2022/03/24 02:44:49;;;;;;;;;;;;;;;17.77;55.93;101652.91;5022389;28;1641;-61
2022/03/24 02:47:17;;;;;;;;;;;;;;;17.74;55.93;101645.91;5025441;28;1425;-57
2022/03/24 02:49:44;;;;;;;;;;;;;;;17.75;55.77;101641.44;5032870;28;1597;-57
2022/03/24 02:52:11;;;;;;;;;;;;;;;17.71;56.12;101638.13;5025280;28;1057;-57
2022/03/24 02:54:37;;;;;;;;;;;;;;;17.72;55.88;101630.94;5031255;28;1341;-60
2022/03/24 02:57:06;;;;;;;;;;;;;;;17.72;56.03;101626.44;5025730;28;1598;-60
2022/03/24 02:59:33;;;;;;;;;;;;;;;17.71;55.83;101632.78;5031401;28;1965;-57
2022/03/24 03:04:36;;;;;;;;;;;;;;;17.68;55.75;101625.78;5031281;28;1919;-37
2022/03/24 03:07:23;;;;;;;;;;;;;;;17.68;55.67;101615.09;5030369;28;1844;-37
2022/03/24 03:09:53;;;;;;;;;;;;;;;17.70;55.98;101633.72;5025945;28;1909;-37
2022/03/24 03:12:26;;;;;;;;;;;;;;;17.66;55.99;101627.72;5021330;28;1605;-37
2022/03/24 03:14:56;;;;;;;;;;;;;;;17.67;55.70;101621.41;5024860;28;1761;-37
2022/03/24 03:17:23;;;;;;;;;;;;;;;17.63;55.27;101616.41;5030325;28;1981;-37
2022/03/24 03:19:51;;;;;;;;;;;;;;;17.65;55.97;101619.81;5022421;28;1082;-37
2022/03/24 03:22:21;;;;;;;;;;;;;;;17.64;55.85;101621.63;5029710;28;1903;-37
2022/03/24 03:24:48;;;;;;;;;;;;;;;17.64;55.47;101612.75;5013469;28;1098;-37
2022/03/24 03:27:19;;;;;;;;;;;;;;;17.61;55.54;101612.97;5033165;28;2004;-37
2022/03/24 03:29:58;;;;;;;;;;;;;;;17.62;55.82;101618.19;5021036;28;1773;-38
2022/03/24 03:32:28;;;;;;;;;;;;;;;17.60;56.23;101616.59;5023859;28;1996;-37
2022/03/24 03:34:57;;;;;;;;;;;;;;;17.60;55.28;101616.59;5031104;28;1130;-38
2022/03/24 03:37:27;;;;;;;;;;;;;;;17.60;55.52;101616.59;5032620;28;1977;-37
2022/03/24 03:39:57;;;;;;;;;;;;;;;17.59;55.82;101617.56;5029566;28;1771;-38
2022/03/24 03:42:28;;;;;;;;;;;;;;;17.59;54.80;101614.91;5029710;28;1777;-37
2022/03/24 03:45:01;;;;;;;;;;;;;;;17.56;55.83;101612.41;5020225;28;1834;-37
2022/03/24 03:47:28;;;;;;;;;;;;;;;17.57;55.79;101616.81;5024738;28;1762;-37
2022/03/24 03:49:56;;;;;;;;;;;;;;;17.55;55.43;101597.31;5023988;28;1528;-38
2022/03/24 03:52:31;;;;;;;;;;;;;;;17.59;55.36;101604.19;5033156;28;1015;-37
2022/03/24 03:54:59;;;;;;;;;;;;;;;17.56;55.80;101593.69;5032399;28;1906;-38
2022/03/24 03:57:26;;;;;;;;;;;;;;;17.53;56.17;101610.81;5031381;28;1976;-37
2022/03/24 03:59:55;;;;;;;;;;;;;;;17.55;55.77;101602.66;5025839;28;1399;-37
2022/03/24 04:02:25;;;;;;;;;;;;;;;17.52;55.90;101597.53;5017193;28;1606;-37
2022/03/24 04:07:35;;;;;;;;;;;;;;;17.53;55.11;101605.47;4996732;28;1537;-37
2022/03/24 04:10:02;;;;;;;;;;;;;;;17.53;56.01;101602.78;5006722;28;1817;-38
2022/03/24 04:12:34;;;;;;;;;;;;;;;17.50;55.15;101589.63;5014710;28;1419;-38
2022/03/24 04:15:04;;;;;;;;;;;;;;;17.51;55.16;101607.41;5015716;28;1584;-38
2022/03/24 04:17:34;;;;;;;;;;;;;;;17.49;55.33;101602.16;5015505;28;1267;-38
2022/03/24 04:20:03;;;;;;;;;;;;;;;17.48;55.10;101597.75;5015957;28;1652;-37
2022/03/24 04:22:30;;;;;;;;;;;;;;;17.50;55.65;101590.47;5016480;28;1090;-38
2022/03/24 04:24:58;;;;;;;;;;;;;;;17.51;55.09;101610.06;5014457;28;1860;-37
2022/03/24 04:27:26;;;;;;;;;;;;;;;17.45;55.12;101600.66;5015177;28;1426;-37
2022/03/24 04:29:55;;;;;;;;;;;;;;;17.45;55.20;101591.78;5002171;28;1749;-38
2022/03/24 04:32:22;;;;;;;;;;;;;;;17.46;55.25;101605.00;5015410;28;1486;-37
2022/03/24 04:34:54;;;;;;;;;;;;;;;17.50;55.37;101605.66;5016407;28;1042;-38
2022/03/24 04:37:28;;;;;;;;;;;;;;;17.46;55.40;101588.13;5015159;28;1964;-38
2022/03/24 04:39:57;;;;;;;;;;;;;;;17.44;55.84;101598.06;5005644;28;2047;-37
2022/03/24 04:42:33;;;;;;;;;;;;;;;17.46;55.96;101590.78;5015712;28;1277;-38
2022/03/24 04:44:59;;;;;;;;;;;;;;;17.43;55.87;101588.34;5003870;28;1400;-38
2022/03/24 04:47:29;;;;;;;;;;;;;;;17.45;55.00;101591.78;5015653;28;1709;-38
2022/03/24 04:50:01;;;;;;;;;;;;;;;17.43;55.07;101586.53;5015414;28;1404;-38
2022/03/24 04:52:30;;;;;;;;;;;;;;;17.48;55.25;101595.06;5016166;28;1015;-37
2022/03/24 04:54:59;;;;;;;;;;;;;;;17.49;56.17;101599.47;5016363;28;2040;-37
2022/03/24 04:57:26;;;;;;;;;;;;;;;17.47;56.82;101601.41;5014512;28;1732;-38
2022/03/24 04:59:52;;;;;;;;;;;;;;;17.47;56.76;101587.19;5014880;28;1906;-37
2022/03/24 05:02:19;;;;;;;;;;;;;;;17.45;55.74;101595.28;5010738;28;1640;-38
2022/03/24 05:04:46;;;;;;;;;;;;;;;17.49;56.04;101599.47;5015328;28;1819;-38
2022/03/24 05:07:16;;;;;;;;;;;;;;;17.47;56.46;101590.69;5015808;28;1066;-37
2022/03/24 05:09:42;;;;;;;;;;;;;;;17.46;56.41;101593.47;5014146;28;1985;-37
2022/03/24 05:12:17;;;;;;;;;;;;;;;17.47;56.94;101588.03;5014140;28;1627;-37
2022/03/24 05:14:50;;;;;;;;;;;;;;;17.50;57.13;101590.47;5014647;28;1668;-37
2022/03/24 05:17:17;;;;;;;;;;;;;;;17.55;56.78;101600.00;5012918;28;2049;-38
2022/03/24 05:19:50;;;;;;;;;;;;;;;17.86;56.63;101580.88;4989097;28;11748;-38
2022/03/24 05:22:22;;;;;;;;;;;;;;;18.05;55.53;101591.16;5029180;28;1858;-37
2022/03/24 05:24:51;;;;;;;;;;;;;;;18.20;54.81;101582.97;5029209;28;1635;-39
2022/03/24 05:30:05;;;;;;;;;;;;;;;18.59;58.24;101579.22;5035404;28;2249;-38
2022/03/24 05:32:36;;;;;;;;;;;;;;;18.93;58.07;101565.19;5031782;28;1618;-38
2022/03/24 05:35:05;;;;;;;;;;;;;;;19.02;58.09;101573.38;5035179;28;1012;-38
2022/03/24 05:37:38;;;;;;;;;;;;;;;19.38;57.20;101582.28;5034698;28;1854;-38
2022/03/24 05:40:06;;;;;;;;;;;;;;;19.32;56.88;101568.47;5029411;28;1955;-38
2022/03/24 05:42:36;;;;;;;;;;;;;;;19.23;57.82;101562.00;5030872;28;1760;-38
2022/03/24 05:45:04;;;;;;;;;;;;;;;19.31;57.61;101569.44;5021421;28;1750;-38
2022/03/24 05:47:31;;;;;;;;;;;;;;;19.48;57.12;101572.53;5020653;28;1908;-38
2022/03/24 05:50:01;;;;;;;;;;;;;;;19.60;57.59;101569.88;5030178;28;1672;-38
2022/03/24 05:52:31;;;;;;;;;;;;;;;19.80;57.67;101568.34;5026627;28;1089;-37
2022/03/24 05:55:13;;;;;;;;;;;;;;;19.84;59.17;101576.03;5022847;28;1574;-38
2022/03/24 05:57:41;;;;;;;;;;;;;;;19.83;58.69;101582.34;5030487;28;1623;-38
2022/03/24 06:00:08;;;;;;;;;;;;;;;19.61;60.15;101582.31;5032892;28;1971;-37
2022/03/24 06:02:36;;;;;;;;;;;;;;;19.33;60.22;101572.88;5031101;28;1710;-37
2022/03/24 06:05:09;;;;;;;;;;;;;;;19.30;59.98;101582.00;4959670;28;12070;-37
2022/03/24 06:07:47;;;;;;;;;;;;;;;19.25;59.65;101581.50;5034661;28;2036;-38
2022/03/24 06:10:22;;;;;;;;;;;;;;;19.12;60.03;101573.53;5032331;28;1530;-38
2022/03/24 06:12:58;;;;;;;;;;;;;;;19.01;59.20;101576.16;5032428;28;1747;-38
2022/03/24 06:15:29;;;;;;;;;;;;;;;18.94;60.16;101578.47;5033950;28;1989;-38
2022/03/24 06:17:55;;;;;;;;;;;;;;;18.88;60.24;101569.06;5027087;28;1476;-38
2022/03/24 06:23:20;;;;;;;;;;;;;;;18.87;60.51;101561.97;5032556;28;2605;-38
2022/03/24 06:25:55;;;;;;;;;;;;;;;18.84;60.42;101556.00;5029911;28;1696;-38
2022/03/24 06:28:25;;;;;;;;;;;;;;;18.81;59.83;101548.19;5030616;28;1828;-38
2022/03/24 06:31:12;;;;;;;;;;;;;;;18.84;60.25;101562.22;5029597;28;1627;-38
2022/03/24 06:33:41;;;;;;;;;;;;;;;18.89;59.94;101548.47;5029686;28;1921;-38
2022/03/24 06:36:09;;;;;;;;;;;;;;;18.94;60.39;101559.72;5032627;28;1572;-38
2022/03/24 06:38:36;;;;;;;;;;;;;;;18.93;60.36;101558.00;5033714;28;1965;-38
2022/03/24 06:41:08;;;;;;;;;;;;;;;19.00;59.69;101551.19;5031034;28;1724;-38
2022/03/24 06:43:35;;;;;;;;;;;;;;;18.98;60.10;101558.50;5028917;28;1597;-38
2022/03/24 06:46:06;;;;;;;;;;;;;;;19.03;59.47;101552.78;5031715;28;1951;-38
2022/03/24 06:48:33;;;;;;;;;;;;;;;19.01;59.77;101547.53;5029545;28;1633;-39
2022/03/24 06:50:59;;;;;;;;;;;;;;;19.05;59.76;101559.72;5031319;28;1519;-38
2022/03/24 06:53:26;;;;;;;;;;;;;;;19.02;58.61;101545.69;5032929;28;1549;-38
2022/03/24 06:56:01;;;;;;;;;;;;;;;19.06;59.66;101549.88;5015073;28;1539;-38
2022/03/24 06:58:29;;;;;;;;;;;;;;;18.97;58.82;101546.06;5033383;28;1977;-38
2022/03/24 07:00:56;;;;;;;;;;;;;;;18.86;57.80;101549.56;5032580;28;1776;-38
2022/03/24 07:03:22;;;;;;;;;;;;;;;18.78;56.89;101548.38;5027088;28;1463;-38
2022/03/24 07:05:51;;;;;;;;;;;;;;;18.18;44.16;101547.44;5025276;28;1545;-37
2022/03/24 07:08:18;;;;;;;;;;;;;;;17.72;45.21;101554.22;5028935;28;1682;-37
2022/03/24 07:10:51;;;;;;;;;;;;;;;18.04;49.92;101551.94;5031806;28;1460;-37
2022/03/24 07:13:21;;;;;;;;;;;;;;;18.25;51.23;101544.19;5019887;28;1895;-38
2022/03/24 07:15:54;;;;;;;;;;;;;;;18.39;50.16;101540.53;5027393;28;1789;-38
2022/03/24 07:18:23;;;;;;;;;;;;;;;18.43;50.13;101533.13;5025381;28;1867;-38
2022/03/24 07:20:52;;;;;;;;;;;;;;;18.44;48.87;101537.50;5025384;28;1902;-38
2022/03/24 07:23:21;;;;;;;;;;;;;;;18.48;48.10;101555.03;5033492;28;995;-38
2022/03/24 07:25:49;;;;;;;;;;;;;;;18.50;47.83;101547.75;5032861;28;1596;-37
2022/03/24 07:28:17;;;;;;;;;;;;;;;18.48;47.12;101545.22;5028862;28;1879;-37
2022/03/24 07:30:50;;;;;;;;;;;;;;;18.51;47.32;101549.47;5029562;28;1777;-38
2022/03/24 07:33:21;;;;;;;;;;;;;;;18.51;47.06;101549.47;5026276;28;1928;-37
2022/03/24 07:35:51;;;;;;;;;;;;;;;18.54;46.43;101543.03;5018767;28;1851;-38
2022/03/24 07:38:21;;;;;;;;;;;;;;;18.52;46.01;101548.50;5025377;28;1027;-37
2022/03/24 07:40:53;;;;;;;;;;;;;;;18.54;46.87;101562.63;5029859;28;1957;-37
2022/03/24 07:43:20;;;;;;;;;;;;;;;18.38;46.87;101549.53;5029397;28;1749;-37
2022/03/24 07:45:49;;;;;;;;;;;;;;;18.39;45.78;101555.75;5036778;28;1713;-37
2022/03/24 07:48:25;;;;;;;;;;;;;;;18.39;45.24;101555.75;5033214;28;1580;-37
2022/03/24 07:50:56;;;;;;;;;;;;;;;18.38;44.80;101538.81;5029698;28;1889;-37
2022/03/24 07:53:48;;;;;;;;;;;;;;;18.39;45.04;101532.47;5036553;28;1066;-38
2022/03/24 07:56:26;;;;;;;;;;;;;;;18.36;44.60;101555.94;5026226;28;1085;-37
2022/03/24 07:58:55;;;;;;;;;;;;;;;18.33;44.38;101556.19;5028625;28;1902;-37
2022/03/24 08:01:26;;;;;;;;;;;;;;;18.32;44.49;101554.47;5028802;28;1886;-38
2022/03/24 08:03:56;;;;;;;;;;;;;;;18.25;43.99;101559.41;5026735;28;1666;-38
2022/03/24 08:06:24;;;;;;;;;;;;;;;18.26;43.92;101551.28;5035861;28;1960;-38
2022/03/24 08:08:52;;;;;;;;;;;;;;;18.29;44.57;101545.69;5034586;28;1576;-38
2022/03/24 08:11:22;;;;;;;;;;;;;;;18.22;43.27;101544.44;5025252;28;1107;-37
2022/03/24 08:13:53;;;;;;;;;;;;;;;18.32;43.29;101555.31;5036399;28;1004;-37
2022/03/24 08:16:21;;;;;;;;;;;;;;;18.33;43.37;101550.84;5025645;28;1827;-38
2022/03/24 08:18:48;;;;;;;;;;;;;;;18.31;43.35;101547.41;5036119;28;1969;-37
2022/03/24 08:21:17;;;;;;;;;;;;;;;18.25;43.27;101549.56;5022218;28;1843;-38
2022/03/24 08:23:47;;;;;;;;;;;;;;;18.21;43.44;101542.72;5034624;28;1789;-38
2022/03/24 08:26:14;;;;;;;;;;;;;;;18.18;43.34;101542.06;5019587;28;1095;-37
2022/03/24 08:28:42;;;;;;;;;;;;;;;18.19;42.76;101528.59;5026533;28;1812;-38
2022/03/24 08:31:09;;;;;;;;;;;;;;;18.23;43.36;101548.81;5033393;28;1776;-38
2022/03/24 08:33:39;;;;;;;;;;;;;;;18.16;43.41;101535.97;5017891;28;2011;-38
2022/03/24 08:36:05;;;;;;;;;;;;;;;18.19;42.66;101538.44;5022886;28;1832;-37
2022/03/24 08:38:35;;;;;;;;;;;;;;;18.20;43.07;101535.63;5036170;28;1065;-38
2022/03/24 08:41:08;;;;;;;;;;;;;;;18.16;43.42;101523.44;5023083;28;1910;-37
2022/03/24 08:43:36;;;;;;;;;;;;;;;18.17;43.00;101532.34;5029916;28;1744;-37
2022/03/24 08:46:08;;;;;;;;;;;;;;;18.15;42.69;101534.28;5025316;28;1768;-37
2022/03/24 08:48:38;;;;;;;;;;;;;;;18.13;42.99;101523.69;5031247;28;2088;-38
2022/03/24 08:51:06;;;;;;;;;;;;;;;18.07;41.50;101524.13;5035291;28;1621;-37
2022/03/24 08:53:34;;;;;;;;;;;;;;;18.03;41.20;101517.28;5035890;28;1018;-38
2022/03/24 08:56:07;;;;;;;;;;;;;;;18.11;42.45;101520.25;5035532;28;1919;-37
2022/03/24 08:58:36;;;;;;;;;;;;;;;18.11;41.83;101514.06;5028508;28;1941;-37
2022/03/24 09:01:12;;;;;;;;;;;;;;;18.10;42.03;101515.88;5034721;28;1965;-37
2022/03/24 09:03:42;;;;;;;;;;;;;;;18.16;42.47;101512.75;5032463;28;1877;-38
2022/03/24 09:06:09;;;;;;;;;;;;;;;18.13;42.62;101517.50;5035585;28;1529;-38
2022/03/24 09:08:40;;;;;;;;;;;;;;;18.12;42.49;101505.91;5028320;28;1854;-38
2022/03/24 09:11:12;;;;;;;;;;;;;;;18.19;41.83;101501.81;5032666;28;1956;-37
2022/03/24 09:13:41;;;;;;;;;;;;;;;18.17;42.08;101497.56;5034674;28;1643;-37
2022/03/24 09:16:11;;;;;;;;;;;;;;;18.21;41.71;101494.53;5028547;28;1824;-37
2022/03/24 09:18:38;;;;;;;;;;;;;;;18.13;42.23;101488.88;5029660;28;1607;-37
2022/03/24 09:21:06;;;;;;;;;;;;;;;18.12;42.61;101489.00;5033985;28;1910;-37
2022/03/24 09:23:34;;;;;;;;;;;;;;;18.11;42.12;101477.44;5030659;28;1567;-37
2022/03/24 09:26:04;;;;;;;;;;;;;;;18.13;42.60;101480.00;5033892;28;1776;-37
2022/03/24 09:28:32;;;;;;;;;;;;;;;18.18;41.31;101473.31;5034017;28;1899;-37
2022/03/24 09:31:00;;;;;;;;;;;;;;;18.20;42.17;101465.19;5026163;28;1794;-37
2022/03/24 09:33:29;;;;;;;;;;;;;;;18.16;41.21;101459.19;5028349;28;1976;-37
2022/03/24 09:35:59;;;;;;;;;;;;;;;18.17;42.32;101466.28;5030036;28;1626;-37
2022/03/24 09:38:28;;;;;;;;;;;;;;;18.22;42.38;101457.91;5026248;28;2255;-37
2022/03/24 09:40:55;;;;;;;;;;;;;;;18.28;41.39;101455.63;5031525;28;1960;-38
2022/03/24 09:43:25;;;;;;;;;;;;;;;18.29;41.99;101460.00;5034442;28;1796;-37
2022/03/24 09:45:59;;;;;;;;;;;;;;;18.27;41.98;101445.88;5033164;28;1537;-37
2022/03/24 09:48:28;;;;;;;;;;;;;;;18.26;42.42;101454.91;5031894;28;1308;-38
2022/03/24 09:51:05;;;;;;;;;;;;;;;18.27;41.95;101445.88;5033812;28;1647;-37
2022/03/24 09:53:40;;;;;;;;;;;;;;;18.28;42.56;101439.56;5030277;28;1518;-37
2022/03/24 09:56:14;;;;;;;;;;;;;;;18.45;41.32;101432.09;5027642;28;1370;-38
2022/03/24 09:58:44;;;;;;;;;;;;;;;18.53;41.51;101435.03;5032488;28;1996;-38
2022/03/24 10:01:17;;;;;;;;;;;;;;;18.60;41.80;101430.06;5028406;28;1977;-37
2022/03/24 10:04:01;;;;;;;;;;;;;;;18.60;41.44;101436.31;5033023;28;1596;-38
2022/03/24 10:06:31;;;;;;;;;;;;;;;18.59;40.98;101423.00;5033738;28;1976;-38
2022/03/24 10:09:00;;;;;;;;;;;;;;;18.58;41.83;101422.16;5016493;28;1773;-38
2022/03/24 10:11:28;;;;;;;;;;;;;;;18.50;41.55;101429.91;5034152;28;1629;-39
2022/03/24 10:14:13;;;;;;;;;;;;;;;18.54;41.86;101420.66;5033849;28;1538;-39
2022/03/24 10:16:50;;;;;;;;;;;;;;;18.44;41.28;101419.66;5032347;28;1605;-39
2022/03/24 10:19:18;;;;;;;;;;;;;;;18.37;41.48;101413.06;5031070;28;1317;-39
2022/03/24 10:21:58;;;;;;;;;;;;;;;18.34;40.71;101414.13;5022995;28;1906;-39
2022/03/24 10:24:26;;;;;;;;;;;;;;;18.37;40.84;101405.88;5033343;28;1702;-39
2022/03/24 10:27:03;;;;;;;;;;;;;;;18.42;39.75;101401.06;5031356;28;1561;-39
2022/03/24 10:29:31;;;;;;;;;;;;;;;18.54;39.40;101406.44;5030770;28;1624;-39
2022/03/24 10:32:06;;;;;;;;;;;;;;;18.51;40.28;101404.84;5033660;28;1946;-39
2022/03/24 10:34:40;;;;;;;;;;;;;;;18.51;40.12;101393.28;5034210;28;1005;-38
2022/03/24 10:37:12;;;;;;;;;;;;;;;18.49;39.66;101390.72;5031706;28;1854;-39
2022/03/24 10:39:56;;;;;;;;;;;;;;;18.56;41.34;101383.94;5033802;28;1973;-39
2022/03/24 10:42:31;;;;;;;;;;;;;;;18.54;41.21;101380.50;5029119;28;1867;-39
2022/03/24 10:45:25;;;;;;;;;;;;;;;18.56;41.12;101386.63;5018326;28;2039;-39
2022/03/24 10:47:58;;;;;;;;;;;;;;;18.51;40.96;101386.09;5016468;28;1801;-39
2022/03/24 10:50:30;;;;;;;;;;;;;;;18.42;40.57;101385.00;5032508;28;1631;-39
2022/03/24 10:53:12;;;;;;;;;;;;;;;18.46;40.49;101366.84;5033440;28;1496;-40
2022/03/24 10:55:52;;;;;;;;;;;;;;;18.47;40.65;101364.03;5028660;28;1803;-38
2022/03/24 10:58:33;;;;;;;;;;;;;;;18.51;40.25;101362.00;5029795;28;1820;-39
2022/03/24 11:01:01;;;;;;;;;;;;;;;18.50;39.90;101365.63;5022548;28;1906;-39
2022/03/24 11:03:35;;;;;;;;;;;;;;;18.47;40.99;101361.38;5026842;28;1703;-39
2022/03/24 11:06:09;;;;;;;;;;;;;;;18.54;40.38;101367.09;5027928;28;1693;-39
2022/03/24 11:08:37;;;;;;;;;;;;;;;18.49;41.06;101350.53;5033495;28;1214;-38
2022/03/24 11:11:06;;;;;;;;;;;;;;;18.55;41.07;101352.75;5030796;28;1771;-39
2022/03/24 11:13:49;;;;;;;;;;;;;;;18.48;41.52;101346.16;5032834;28;1509;-39
2022/03/24 11:16:21;;;;;;;;;;;;;;;18.46;41.66;101342.72;5020335;28;1764;-39
2022/03/24 11:18:59;;;;;;;;;;;;;;;18.41;41.28;101335.06;5030621;28;1887;-39
2022/03/24 11:21:37;;;;;;;;;;;;;;;18.47;41.40;101334.59;5032931;28;1918;-39
2022/03/24 11:24:06;;;;;;;;;;;;;;;18.52;41.70;101320.00;5028798;28;1853;-39
2022/03/24 11:26:39;;;;;;;;;;;;;;;18.55;41.13;101331.31;5027152;28;1424;-39
2022/03/24 11:29:09;;;;;;;;;;;;;;;18.51;41.21;101308.44;5024381;28;1621;-38
2022/03/24 11:31:36;;;;;;;;;;;;;;;18.51;41.52;101311.09;5027004;28;1528;-39
2022/03/24 11:34:08;;;;;;;;;;;;;;;18.59;41.50;101302.47;5024495;28;1027;-38
2022/03/24 11:36:35;;;;;;;;;;;;;;;18.60;41.98;101307.72;5031379;28;1765;-38
2022/03/24 11:39:04;;;;;;;;;;;;;;;18.53;42.47;101284.22;5032360;28;1736;-39
2022/03/24 11:41:35;;;;;;;;;;;;;;;18.57;42.77;101297.22;5027524;28;2001;-39
2022/03/24 11:44:17;;;;;;;;;;;;;;;18.56;43.16;101278.59;5032958;28;1728;-39
2022/03/24 11:46:51;;;;;;;;;;;;;;;18.52;43.71;101286.00;5026356;28;1655;-40
2022/03/24 11:49:27;;;;;;;;;;;;;;;18.54;43.87;101278.72;5031691;28;1475;-39
2022/03/24 11:52:14;;;;;;;;;;;;;;;18.54;44.21;101276.03;5031974;28;1073;-39
2022/03/24 11:54:50;;;;;;;;;;;;;;;18.52;44.50;101272.63;5020738;28;1527;-39
2022/03/24 11:57:37;;;;;;;;;;;;;;;18.54;44.51;101265.31;5032118;28;1768;-39
2022/03/24 12:00:24;;;;;;;;;;;;;;;18.52;44.81;101256.56;5020886;28;1910;-39
2022/03/24 12:02:53;;;;;;;;;;;;;;;18.52;44.97;101245.84;5032210;28;1502;-39
2022/03/24 12:05:37;;;;;;;;;;;;;;;18.59;45.33;101254.25;5032459;28;1490;-38
2022/03/24 12:08:10;;;;;;;;;;;;;;;18.61;45.18;101255.00;5020107;28;1669;-38
2022/03/24 12:10:39;;;;;;;;;;;;;;;18.60;45.54;101247.91;5032872;28;1864;-39
2022/03/24 12:13:21;;;;;;;;;;;;;;;18.60;45.51;101246.13;5026928;28;1877;-39
2022/03/24 12:16:07;;;;;;;;;;;;;;;18.55;45.64;101240.25;5032965;28;1999;-39
2022/03/24 12:18:43;;;;;;;;;;;;;;;18.62;45.86;101240.63;5032903;28;1461;-38
2022/03/24 12:21:26;;;;;;;;;;;;;;;18.74;46.05;101234.31;5035882;28;1920;-38
2022/03/24 12:24:16;;;;;;;;;;;;;;;18.71;46.49;101239.91;5035384;28;1741;-39
2022/03/24 12:27:01;;;;;;;;;;;;;;;18.72;46.83;101224.66;5025977;28;1737;-38
2022/03/24 12:29:30;;;;;;;;;;;;;;;18.72;46.79;101230.03;5029483;28;1875;-39
2022/03/24 12:32:01;;;;;;;;;;;;;;;18.67;46.96;101228.56;5035658;28;1744;-39
2022/03/24 12:34:44;;;;;;;;;;;;;;;18.61;47.09;101221.03;5030701;28;1000;-39
2022/03/24 12:37:26;;;;;;;;;;;;;;;18.60;47.56;101219.34;5029474;28;1732;-39
2022/03/24 12:40:09;;;;;;;;;;;;;;;18.65;47.33;101218.94;5034642;28;1747;-39
2022/03/24 12:42:43;;;;;;;;;;;;;;;18.59;47.56;101222.97;5035353;28;1541;-40
2022/03/24 12:45:11;;;;;;;;;;;;;;;18.59;47.78;101220.28;5034758;28;1608;-39
2022/03/24 12:47:39;;;;;;;;;;;;;;;18.58;47.81;101205.22;5031572;28;1680;-39
2022/03/24 12:50:33;;;;;;;;;;;;;;;18.67;47.95;101228.56;5029712;28;1737;-39
2022/03/24 12:53:01;;;;;;;;;;;;;;;18.58;48.17;101204.34;5025389;28;2015;-39
2022/03/24 12:55:38;;;;;;;;;;;;;;;18.59;48.48;101204.22;5033243;28;1839;-39
2022/03/24 12:58:26;;;;;;;;;;;;;;;18.56;48.24;101193.78;5034867;28;1915;-39
2022/03/24 13:00:52;;;;;;;;;;;;;;;18.57;48.57;101206.16;5032827;28;1999;-38
2022/03/24 13:03:19;;;;;;;;;;;;;;;18.64;48.48;101195.81;5025613;28;1945;-40
2022/03/24 13:05:50;;;;;;;;;;;;;;;18.67;48.41;101191.06;5025158;28;1697;-39
2022/03/24 13:08:20;;;;;;;;;;;;;;;18.64;48.67;101188.66;5035758;28;1598;-39
2022/03/24 13:10:52;;;;;;;;;;;;;;;18.61;48.78;101180.00;5032718;28;1708;-39
2022/03/24 13:13:24;;;;;;;;;;;;;;;18.61;48.15;101183.53;5032707;28;1531;-39
2022/03/24 13:15:53;;;;;;;;;;;;;;;18.65;48.86;101182.28;5035018;28;1940;-39
2022/03/24 13:18:37;;;;;;;;;;;;;;;18.57;50.20;101173.19;5034790;28;1852;-39